createdAt,value
2019-01-24T00:01:42.272Z,7.90
2019-01-24T00:05:55.923Z,7.63
2019-01-24T00:10:11.869Z,7.50
2019-01-24T00:14:24.624Z,6.90
2019-01-24T00:18:37.479Z,7.10
2019-01-24T00:22:49.979Z,7.57
2019-01-24T00:27:02.396Z,8.10
2019-01-24T00:31:15.275Z,8.13
2019-01-24T00:35:27.736Z,8.77
2019-01-24T00:39:40.291Z,9.07
2019-01-24T00:43:53.245Z,8.03
2019-01-24T00:48:05.872Z,9.10
2019-01-24T00:52:18.644Z,9.30
2019-01-24T00:56:31.248Z,10.93
2019-01-24T01:00:44.136Z,13.20
2019-01-24T01:04:56.696Z,11.40
2019-01-24T01:09:10.225Z,10.33
2019-01-24T01:13:22.656Z,10.40
2019-01-24T01:17:35.296Z,11.10
2019-01-24T01:21:48.216Z,10.87
2019-01-24T01:26:01.356Z,11.53
2019-01-24T01:30:19.568Z,10.43
2019-01-24T01:34:36.317Z,9.90
2019-01-24T01:38:47.588Z,9.37
2019-01-24T01:43:00.197Z,7.10
2019-01-24T01:47:13.076Z,7.70
2019-01-24T01:51:26.781Z,7.27
2019-01-24T01:55:39.164Z,7.57
2019-01-24T01:59:52.535Z,6.97
2019-01-24T02:04:04.931Z,6.83
2019-01-24T02:08:17.635Z,6.87
2019-01-24T02:12:30.188Z,5.07
2019-01-24T02:16:42.661Z,5.07
2019-01-24T02:20:55.595Z,5.37
2019-01-24T02:25:09.112Z,5.03
2019-01-24T02:29:21.552Z,5.03
2019-01-24T02:33:34.385Z,5.17
2019-01-24T02:37:46.827Z,4.70
2019-01-24T02:41:59.152Z,4.83
2019-01-24T02:46:11.453Z,4.20
2019-01-24T02:50:25.011Z,4.10
2019-01-24T02:54:37.404Z,4.63
2019-01-24T02:58:50.821Z,4.30
2019-01-24T03:03:03.535Z,3.87
2019-01-24T03:07:16.010Z,4.57
2019-01-24T03:11:28.406Z,4.80
2019-01-24T03:15:40.916Z,5.53
2019-01-24T03:19:53.715Z,5.23
2019-01-24T03:24:05.973Z,5.30
2019-01-24T03:28:18.394Z,4.83
2019-01-24T03:32:31.271Z,5.63
2019-01-24T03:36:43.722Z,5.33
2019-01-24T03:40:56.602Z,5.80
2019-01-24T03:45:11.012Z,5.07
2019-01-24T03:49:24.008Z,5.20
2019-01-24T03:53:36.457Z,4.93
2019-01-24T03:57:48.986Z,4.50
2019-01-24T04:02:02.364Z,3.90
2019-01-24T04:06:15.098Z,4.10
2019-01-24T04:10:27.551Z,4.37
2019-01-24T04:14:39.948Z,4.90
2019-01-24T04:18:52.712Z,4.70
2019-01-24T04:23:05.372Z,4.30
2019-01-24T04:27:17.728Z,4.80
2019-01-24T04:31:30.640Z,4.60
2019-01-24T04:35:42.967Z,3.70
2019-01-24T04:39:55.959Z,4.20
2019-01-24T04:44:08.635Z,4.53
2019-01-24T04:48:20.924Z,4.70
2019-01-24T04:52:33.817Z,3.90
2019-01-24T04:56:46.272Z,4.67
2019-01-24T05:00:58.585Z,4.67
2019-01-24T05:05:11.545Z,4.00
2019-01-24T05:09:24.032Z,4.50
2019-01-24T05:13:37.576Z,4.90
2019-01-24T05:17:50.208Z,4.43
2019-01-24T05:22:02.785Z,4.80
2019-01-24T05:26:14.914Z,4.83
2019-01-24T05:30:29.148Z,4.40
2019-01-24T05:34:41.883Z,4.70
2019-01-24T05:38:54.693Z,4.37
2019-01-24T05:43:07.145Z,4.33
2019-01-24T05:47:19.552Z,4.20
2019-01-24T05:51:33.105Z,4.13
2019-01-24T05:55:45.994Z,3.97
2019-01-24T05:59:58.445Z,4.20
2019-01-24T06:04:10.869Z,3.90
2019-01-24T06:08:23.335Z,4.00
2019-01-24T06:12:36.055Z,3.70
2019-01-24T06:16:48.609Z,3.33
2019-01-24T06:21:01.569Z,3.53
2019-01-24T06:25:14.272Z,3.73
2019-01-24T06:29:27.709Z,3.57
2019-01-24T06:33:40.130Z,3.03
2019-01-24T06:37:53.105Z,3.50
2019-01-24T06:42:05.571Z,3.77
2019-01-24T06:46:17.880Z,4.27
2019-01-24T06:50:30.213Z,3.80
2019-01-24T06:54:42.600Z,4.43
2019-01-24T06:58:55.189Z,4.60
2019-01-24T07:03:07.647Z,4.63
2019-01-24T07:07:20.059Z,4.03
2019-01-24T07:11:33.020Z,4.23
2019-01-24T07:15:45.624Z,4.17
2019-01-24T07:19:58.668Z,4.77
2019-01-24T07:24:11.342Z,4.43
2019-01-24T07:28:23.675Z,3.47
2019-01-24T07:32:36.464Z,4.30
2019-01-24T07:36:49.024Z,4.17
2019-01-24T07:41:02.677Z,4.77
2019-01-24T07:45:29.785Z,4.13
2019-01-24T07:49:42.143Z,4.00
2019-01-24T07:53:55.680Z,4.13
2019-01-24T07:58:08.903Z,3.73
2019-01-24T08:02:21.231Z,3.73
2019-01-24T08:06:33.747Z,5.20
2019-01-24T08:10:47.304Z,5.33
2019-01-24T08:15:00.452Z,5.30
2019-01-24T08:19:13.135Z,5.67
2019-01-24T08:23:26.104Z,5.07
2019-01-24T08:27:38.706Z,4.80
2019-01-24T08:31:51.103Z,5.67
2019-01-24T08:36:03.456Z,5.80
2019-01-24T08:40:16.576Z,5.67
2019-01-24T08:44:29.504Z,5.10
2019-01-24T08:48:42.210Z,4.70
2019-01-24T08:52:55.739Z,4.60
2019-01-24T08:57:08.181Z,4.60
2019-01-24T09:01:21.072Z,4.27
2019-01-24T09:05:33.952Z,3.70
2019-01-24T09:09:46.541Z,4.47
2019-01-24T09:13:59.396Z,3.27
2019-01-24T09:18:14.523Z,3.87
2019-01-24T09:22:27.904Z,4.13
2019-01-24T09:26:40.536Z,4.17
2019-01-24T09:30:55.684Z,4.20
2019-01-24T09:35:11.349Z,4.20
2019-01-24T09:39:26.655Z,4.37
2019-01-24T09:43:41.402Z,5.00
2019-01-24T09:47:54.992Z,3.70
2019-01-24T09:52:09.755Z,3.73
2019-01-24T09:56:24.313Z,4.10
2019-01-24T10:00:39.579Z,3.87
2019-01-24T10:04:54.024Z,4.00
2019-01-24T10:09:10.924Z,3.53
2019-01-24T10:13:23.763Z,3.73
2019-01-24T10:17:36.629Z,3.27
2019-01-24T10:21:49.578Z,4.30
2019-01-24T10:26:02.023Z,3.80
2019-01-24T10:30:15.772Z,4.20
2019-01-24T10:34:28.597Z,3.00
2019-01-24T10:38:41.174Z,2.40
2019-01-24T10:42:54.149Z,2.07
2019-01-24T10:47:06.824Z,3.33
2019-01-24T10:51:19.179Z,3.50
2019-01-24T10:55:32.011Z,5.30
2019-01-24T10:59:44.567Z,5.70
2019-01-24T11:03:57.209Z,6.23
2019-01-24T11:08:10.072Z,5.60
2019-01-24T11:12:22.637Z,4.33
2019-01-24T11:16:35.463Z,5.37
2019-01-24T11:20:48.473Z,5.33
2019-01-24T11:25:00.804Z,3.07
2019-01-24T11:29:13.689Z,3.57
2019-01-24T11:33:26.153Z,2.83
2019-01-24T11:37:38.553Z,2.57
2019-01-24T11:41:51.340Z,2.50
2019-01-24T11:46:03.905Z,2.63
2019-01-24T11:50:18.057Z,2.60
2019-01-24T11:54:30.881Z,1.93
2019-01-24T11:58:43.569Z,1.80
2019-01-24T12:02:56.828Z,2.07
2019-01-24T12:07:09.381Z,2.70
2019-01-24T12:11:22.306Z,2.50
2019-01-24T12:15:36.153Z,2.47
2019-01-24T12:19:49.823Z,2.80
2019-01-24T12:24:03.011Z,2.10
2019-01-24T12:28:15.533Z,1.60
2019-01-24T12:32:28.485Z,1.40
2019-01-24T12:36:41.083Z,1.47
2019-01-24T12:40:53.928Z,1.70
2019-01-24T12:45:08.124Z,1.80
2019-01-24T12:49:21.316Z,1.30
2019-01-24T12:53:33.925Z,1.40
2019-01-24T12:57:46.706Z,1.40
2019-01-24T13:01:59.624Z,1.20
2019-01-24T13:06:12.391Z,1.50
2019-01-24T13:10:26.036Z,1.20
2019-01-24T13:14:38.581Z,1.40
2019-01-24T13:18:50.991Z,1.20
2019-01-24T13:23:03.929Z,1.10
2019-01-24T13:27:16.516Z,1.07
2019-01-24T13:31:29.984Z,1.00
2019-01-24T13:35:42.427Z,0.87
2019-01-24T13:39:55.297Z,0.90
2019-01-24T13:44:09.014Z,1.30
2019-01-24T13:48:22.594Z,1.20
2019-01-24T13:52:36.314Z,1.37
2019-01-24T13:56:48.805Z,1.00
2019-01-24T14:01:01.656Z,1.60
2019-01-24T14:05:15.221Z,1.33
2019-01-24T14:09:27.894Z,1.07
2019-01-24T14:13:40.746Z,1.10
2019-01-24T14:17:53.186Z,0.67
2019-01-24T14:22:05.833Z,0.73
2019-01-24T14:26:18.589Z,0.77
2019-01-24T14:30:31.219Z,0.90
2019-01-24T14:34:43.935Z,0.83
2019-01-24T14:38:56.399Z,1.10
2019-01-24T14:43:08.796Z,0.53
2019-01-24T14:47:21.213Z,0.50
2019-01-24T14:51:34.016Z,0.33
2019-01-24T14:55:46.576Z,0.40
2019-01-24T14:59:58.936Z,1.40
2019-01-24T15:04:11.311Z,1.67
2019-01-24T15:08:24.189Z,1.40
2019-01-24T15:12:36.739Z,1.80
2019-01-24T15:16:49.152Z,1.63
2019-01-24T15:21:01.589Z,1.30
2019-01-24T15:25:14.248Z,1.83
2019-01-24T15:29:26.710Z,2.70
2019-01-24T15:33:39.660Z,1.90
2019-01-24T15:37:54.636Z,2.30
2019-01-24T15:42:06.205Z,2.50
2019-01-24T15:46:18.895Z,1.53
2019-01-24T15:50:31.440Z,1.77
2019-01-24T15:54:44.230Z,1.77
2019-01-24T15:58:57.265Z,1.50
2019-01-24T16:03:10.149Z,1.30
2019-01-24T16:07:22.976Z,0.90
2019-01-24T16:11:36.400Z,1.10
2019-01-24T16:15:49.277Z,1.10
2019-01-24T16:20:01.747Z,0.90
2019-01-24T16:24:14.275Z,0.70
2019-01-24T16:28:27.036Z,0.70
2019-01-24T16:32:39.593Z,0.83
2019-01-24T16:36:51.968Z,1.00
2019-01-24T16:41:05.448Z,1.07
2019-01-24T16:45:19.919Z,1.53
2019-01-24T16:49:32.431Z,1.30
2019-01-24T16:53:45.453Z,1.40
2019-01-24T16:57:58.188Z,1.37
2019-01-24T17:02:10.704Z,2.53
2019-01-24T17:06:23.544Z,2.30
2019-01-24T17:10:36.355Z,2.53
2019-01-24T17:14:48.772Z,2.90
2019-01-24T17:19:01.657Z,2.90
2019-01-24T17:23:14.344Z,4.77
2019-01-24T17:27:28.851Z,18.50
2019-01-24T17:31:41.423Z,13.97
2019-01-24T17:35:53.807Z,13.10
2019-01-24T17:40:07.321Z,14.10
2019-01-24T17:44:19.620Z,15.87
2019-01-24T17:48:31.983Z,20.03
2019-01-24T17:52:45.449Z,13.40
2019-01-24T17:56:57.847Z,13.07
2019-01-24T18:01:10.704Z,12.20
2019-01-24T18:05:23.286Z,9.63
2019-01-24T18:09:36.466Z,11.03
2019-01-24T18:13:48.950Z,9.80
2019-01-24T18:18:02.688Z,19.40
2019-01-24T18:22:15.680Z,13.13
2019-01-24T18:26:28.087Z,9.57
2019-01-24T18:30:41.220Z,10.00
2019-01-24T18:34:54.466Z,7.70
2019-01-24T18:39:10.297Z,8.00
2019-01-24T18:43:24.997Z,8.33
2019-01-24T18:47:37.585Z,8.87
2019-01-24T18:51:50.460Z,9.57
2019-01-24T18:56:03.137Z,9.23
2019-01-24T19:00:19.459Z,10.30
2019-01-24T19:04:32.165Z,10.33
2019-01-24T19:08:45.988Z,8.47
2019-01-24T19:12:59.053Z,9.00
2019-01-24T19:17:11.565Z,9.20
2019-01-24T19:21:24.627Z,9.90
2019-01-24T19:25:37.315Z,10.47
2019-01-24T19:29:49.728Z,10.50
2019-01-24T19:34:02.019Z,7.83
2019-01-24T19:38:14.342Z,10.37
2019-01-24T19:42:27.696Z,7.13
2019-01-24T19:46:40.683Z,7.50
2019-01-24T19:50:53.130Z,7.17
2019-01-24T19:55:05.937Z,7.00
2019-01-24T19:59:19.760Z,5.73
2019-01-24T20:03:32.222Z,7.00
2019-01-24T20:07:44.640Z,6.47
2019-01-24T20:11:57.624Z,6.13
2019-01-24T20:16:10.045Z,7.10
2019-01-24T20:20:22.605Z,9.13
2019-01-24T20:24:35.477Z,8.73
2019-01-24T20:28:47.848Z,9.57
2019-01-24T20:33:01.277Z,8.10
2019-01-24T20:37:13.698Z,8.60
2019-01-24T20:41:26.587Z,7.50
2019-01-24T20:45:39.224Z,7.57
2019-01-24T20:49:51.766Z,7.20
2019-01-24T20:54:04.745Z,6.60
2019-01-24T20:58:17.204Z,6.70
2019-01-24T21:02:29.989Z,6.90
2019-01-24T21:06:42.455Z,5.53
2019-01-24T21:10:54.852Z,5.47
2019-01-24T21:15:07.905Z,5.20
2019-01-24T21:19:20.378Z,5.53
2019-01-24T21:23:32.718Z,14.60
2019-01-24T21:27:45.156Z,8.10
2019-01-24T21:31:57.933Z,27.90
2019-01-24T21:36:10.389Z,5.60
2019-01-24T21:40:23.536Z,11.80
2019-01-24T21:44:36.132Z,7.80
2019-01-24T21:48:48.497Z,4.13
2019-01-24T21:53:01.337Z,7.03
2019-01-24T21:57:13.783Z,6.33
2019-01-24T22:01:26.674Z,8.63
2019-01-24T22:05:39.182Z,5.47
2019-01-24T22:09:51.538Z,9.17
2019-01-24T22:14:03.856Z,10.40
2019-01-24T22:18:16.712Z,11.33
2019-01-24T22:22:29.210Z,7.20
2019-01-24T22:26:41.714Z,8.97
2019-01-24T22:30:56.724Z,6.13
2019-01-24T22:35:10.177Z,4.37
2019-01-24T22:39:23.022Z,4.00
2019-01-24T22:43:35.583Z,3.33
2019-01-24T22:47:47.882Z,4.60
2019-01-24T22:52:00.857Z,6.40
2019-01-24T22:56:13.448Z,2.93
2019-01-24T23:00:51.360Z,3.20
2019-01-24T23:05:03.876Z,3.50
2019-01-24T23:09:17.303Z,3.67
2019-01-24T23:13:29.685Z,3.53
2019-01-24T23:17:42.403Z,3.33
2019-01-24T23:21:54.838Z,2.90
2019-01-24T23:26:07.231Z,3.07
2019-01-24T23:30:20.120Z,3.30
2019-01-24T23:34:32.527Z,2.90
2019-01-24T23:38:44.940Z,3.43
2019-01-24T23:42:57.717Z,2.97
2019-01-24T23:47:10.183Z,3.37
2019-01-24T23:51:23.348Z,3.33
2019-01-24T23:55:35.932Z,4.10
2019-01-24T23:59:49.475Z,3.13
